createdAt,value
2019-03-31T00:03:02.794Z,19.37
2019-03-31T00:08:10.160Z,31.10
2019-03-31T00:13:16.917Z,18.52
2019-03-31T00:18:23.613Z,38.05
2019-03-31T00:23:30.539Z,43.00
2019-03-31T00:28:37.410Z,23.07
2019-03-31T00:33:44.141Z,17.65
2019-03-31T00:38:50.957Z,12.13
2019-03-31T00:43:57.789Z,17.02
2019-03-31T00:49:04.657Z,18.32
2019-03-31T00:54:11.238Z,12.00
2019-03-31T00:59:18.373Z,10.08
2019-03-31T01:04:29.530Z,9.98
2019-03-31T01:09:36.799Z,9.08
2019-03-31T01:14:44.369Z,9.80
2019-03-31T01:19:53.042Z,9.98
2019-03-31T01:24:59.873Z,13.70
2019-03-31T01:30:08.888Z,12.40
2019-03-31T01:35:15.965Z,11.80
2019-03-31T01:40:22.624Z,12.10
2019-03-31T01:45:29.287Z,9.90
2019-03-31T01:50:35.779Z,15.55
2019-03-31T01:55:42.370Z,12.43
2019-03-31T02:00:55.577Z,12.68
2019-03-31T02:06:02.365Z,13.80
2019-03-31T02:11:09.080Z,10.65
2019-03-31T02:16:16.007Z,11.22
2019-03-31T02:21:22.868Z,10.23
2019-03-31T02:26:29.250Z,11.10
2019-03-31T02:31:36.033Z,12.05
2019-03-31T02:36:42.889Z,12.43
2019-03-31T02:41:49.685Z,10.60
2019-03-31T02:46:56.327Z,15.55
2019-03-31T02:52:03.105Z,11.15
2019-03-31T02:57:10.031Z,11.28
2019-03-31T03:02:17.106Z,15.38
2019-03-31T03:07:25.137Z,9.60
2019-03-31T03:12:35.490Z,13.18
2019-03-31T03:17:42.261Z,11.63
2019-03-31T03:22:49.143Z,12.37
2019-03-31T03:27:55.822Z,13.68
2019-03-31T03:33:14.616Z,15.95
2019-03-31T03:38:11.063Z,12.73
2019-03-31T03:43:17.652Z,13.15
2019-03-31T03:48:24.287Z,13.83
2019-03-31T03:53:31.011Z,18.87
2019-03-31T03:58:38.325Z,15.18
2019-03-31T04:03:45.038Z,14.63
2019-03-31T04:08:51.809Z,12.60
2019-03-31T04:13:58.940Z,10.08
2019-03-31T04:19:05.610Z,13.35
2019-03-31T04:24:12.316Z,12.15
2019-03-31T04:29:18.848Z,13.90
2019-03-31T04:34:25.601Z,12.20
2019-03-31T04:39:32.245Z,12.80
2019-03-31T04:44:38.861Z,17.80
2019-03-31T04:49:45.585Z,15.58
2019-03-31T04:54:52.384Z,14.18
2019-03-31T04:59:59.152Z,14.58
2019-03-31T05:05:05.958Z,16.27
2019-03-31T05:10:12.669Z,14.05
2019-03-31T05:15:19.641Z,16.00
2019-03-31T05:20:26.254Z,13.45
2019-03-31T05:25:32.885Z,14.15
2019-03-31T05:30:39.869Z,14.85
2019-03-31T05:35:46.636Z,13.83
2019-03-31T05:40:53.599Z,12.80
2019-03-31T05:46:00.391Z,18.57
2019-03-31T05:51:07.105Z,15.40
2019-03-31T05:56:13.777Z,13.78
2019-03-31T06:01:20.501Z,19.85
2019-03-31T06:06:27.343Z,15.23
2019-03-31T06:11:34.171Z,24.35
2019-03-31T06:16:40.925Z,15.13
2019-03-31T06:21:47.614Z,14.38
2019-03-31T06:26:54.251Z,19.52
2019-03-31T06:32:00.904Z,24.20
2019-03-31T06:37:07.845Z,15.48
2019-03-31T06:42:14.421Z,12.68
2019-03-31T06:47:21.018Z,16.17
2019-03-31T06:52:27.769Z,14.47
2019-03-31T06:57:34.398Z,19.57
2019-03-31T07:02:41.215Z,14.63
2019-03-31T07:07:47.762Z,15.68
2019-03-31T07:12:54.499Z,12.68
2019-03-31T07:18:01.242Z,11.55
2019-03-31T07:23:07.933Z,12.60
2019-03-31T07:28:14.770Z,13.48
2019-03-31T07:33:21.619Z,14.70
2019-03-31T07:38:38.398Z,15.68
2019-03-31T07:43:36.606Z,11.88
2019-03-31T07:48:43.900Z,12.95
2019-03-31T07:53:50.573Z,10.88
2019-03-31T07:58:57.224Z,12.65
2019-03-31T08:04:04.105Z,13.88
2019-03-31T08:09:10.766Z,10.82
2019-03-31T08:14:17.439Z,13.40
2019-03-31T08:19:24.238Z,10.40
2019-03-31T08:24:41.271Z,9.10
2019-03-31T08:29:55.681Z,9.73
2019-03-31T08:34:56.815Z,12.18
2019-03-31T08:40:03.890Z,12.43
2019-03-31T08:45:10.745Z,8.28
2019-03-31T08:50:18.328Z,8.55
2019-03-31T08:55:25.002Z,9.95
2019-03-31T09:00:37.014Z,11.25
2019-03-31T09:05:43.585Z,8.73
2019-03-31T09:10:50.333Z,7.10
2019-03-31T09:15:56.988Z,10.72
2019-03-31T09:21:03.862Z,8.70
2019-03-31T09:26:10.593Z,5.37
2019-03-31T09:31:17.608Z,12.40
2019-03-31T09:36:24.120Z,8.05
2019-03-31T09:41:30.929Z,7.33
2019-03-31T09:46:37.792Z,11.12
2019-03-31T09:51:44.584Z,8.23
2019-03-31T09:56:51.383Z,9.45
2019-03-31T10:01:58.045Z,9.63
2019-03-31T10:07:04.724Z,10.03
2019-03-31T10:12:11.319Z,7.80
2019-03-31T10:17:18.008Z,7.92
2019-03-31T10:22:24.764Z,7.10
2019-03-31T10:27:31.382Z,6.87
2019-03-31T10:32:38.013Z,9.10
2019-03-31T10:37:44.683Z,7.00
2019-03-31T10:42:51.402Z,8.55
2019-03-31T10:47:58.219Z,7.78
2019-03-31T10:53:04.938Z,10.78
2019-03-31T10:58:11.633Z,7.50
2019-03-31T11:03:18.475Z,8.83
2019-03-31T11:08:25.149Z,12.40
2019-03-31T11:13:31.716Z,15.00
2019-03-31T11:18:38.418Z,5.35
2019-03-31T11:23:45.116Z,5.65
2019-03-31T11:28:51.803Z,3.92
2019-03-31T11:33:58.452Z,6.35
2019-03-31T11:39:06.752Z,9.23
2019-03-31T11:44:13.498Z,19.35
2019-03-31T11:49:20.187Z,7.67
2019-03-31T11:54:26.856Z,4.33
2019-03-31T11:59:33.477Z,3.83
2019-03-31T12:04:40.263Z,4.67
2019-03-31T12:09:46.948Z,3.83
2019-03-31T12:15:00.345Z,4.33
2019-03-31T12:20:01.952Z,2.92
2019-03-31T12:25:09.023Z,3.62
2019-03-31T12:30:18.400Z,5.50
2019-03-31T12:35:25.038Z,4.17
2019-03-31T12:40:33.114Z,6.40
2019-03-31T12:45:42.932Z,3.90
2019-03-31T12:50:48.473Z,4.62
2019-03-31T12:56:00.366Z,3.83
2019-03-31T13:01:03.636Z,6.60
2019-03-31T13:06:10.462Z,7.67
2019-03-31T13:11:17.336Z,4.62
2019-03-31T13:16:24.125Z,4.37
2019-03-31T13:21:30.865Z,5.22
2019-03-31T13:26:37.558Z,52.15
2019-03-31T13:31:44.302Z,19.07
2019-03-31T13:36:51.158Z,18.85
2019-03-31T13:41:57.845Z,3.22
2019-03-31T13:47:04.644Z,4.72
2019-03-31T13:52:11.439Z,5.97
2019-03-31T13:57:18.345Z,4.65
2019-03-31T14:02:25.343Z,10.00
2019-03-31T14:07:32.195Z,14.80
2019-03-31T14:12:38.881Z,13.30
2019-03-31T14:17:45.676Z,5.28
2019-03-31T14:22:52.481Z,5.87
2019-03-31T14:27:59.377Z,7.95
2019-03-31T14:33:06.526Z,5.62
2019-03-31T14:38:13.271Z,3.95
2019-03-31T14:43:19.981Z,3.08
2019-03-31T14:48:26.840Z,5.28
2019-03-31T14:53:33.470Z,3.02
2019-03-31T14:58:40.294Z,2.33
2019-03-31T15:03:46.923Z,3.35
2019-03-31T15:08:54.734Z,2.87
2019-03-31T15:14:01.415Z,2.30
2019-03-31T15:19:08.028Z,2.52
2019-03-31T15:24:14.594Z,4.55
2019-03-31T15:29:21.375Z,3.52
2019-03-31T15:34:28.047Z,3.40
2019-03-31T15:39:34.831Z,4.50
2019-03-31T15:44:41.471Z,4.20
2019-03-31T15:49:48.634Z,5.25
2019-03-31T15:54:55.292Z,5.47
2019-03-31T16:00:01.924Z,4.25
2019-03-31T16:05:12.698Z,3.47
2019-03-31T16:10:18.166Z,1.82
2019-03-31T16:15:24.557Z,2.33
2019-03-31T16:20:30.838Z,4.55
2019-03-31T16:25:39.203Z,2.45
2019-03-31T16:30:45.663Z,2.45
2019-03-31T16:35:51.896Z,3.27
2019-03-31T16:40:58.277Z,2.92
2019-03-31T16:46:04.663Z,5.55
2019-03-31T16:51:10.541Z,3.70
2019-03-31T16:56:16.986Z,3.62
2019-03-31T17:01:23.469Z,3.83
2019-03-31T17:06:29.484Z,2.92
2019-03-31T17:11:35.881Z,4.15
2019-03-31T17:16:42.010Z,4.30
2019-03-31T17:21:48.304Z,5.37
2019-03-31T17:26:54.578Z,7.67
2019-03-31T17:32:00.775Z,5.67
2019-03-31T17:37:07.027Z,7.37
2019-03-31T17:42:13.309Z,2.42
2019-03-31T17:47:19.833Z,4.40
2019-03-31T17:52:26.116Z,2.40
2019-03-31T17:57:32.325Z,3.22
2019-03-31T18:02:38.610Z,4.12
2019-03-31T18:07:44.499Z,5.50
2019-03-31T18:12:50.374Z,7.03
2019-03-31T18:17:56.243Z,7.28
2019-03-31T18:23:02.632Z,3.08
2019-03-31T18:28:08.464Z,4.12
2019-03-31T18:33:14.340Z,6.00
2019-03-31T18:38:20.219Z,3.65
2019-03-31T18:43:26.115Z,3.70
2019-03-31T18:48:31.966Z,12.78
2019-03-31T18:53:52.078Z,4.65
2019-03-31T18:59:14.242Z,4.62
2019-03-31T19:04:34.547Z,7.92
2019-03-31T19:10:02.622Z,5.40
2019-03-31T19:15:26.609Z,8.83
2019-03-31T19:20:52.781Z,5.20
2019-03-31T19:26:20.855Z,9.28
2019-03-31T19:31:53.054Z,7.95
2019-03-31T19:37:14.398Z,5.28
2019-03-31T19:42:34.843Z,6.25
2019-03-31T19:48:05.941Z,6.83
2019-03-31T19:53:33.928Z,7.62
2019-03-31T19:59:07.939Z,8.30
2019-03-31T20:04:35.963Z,6.85
2019-03-31T20:09:47.674Z,7.47
2019-03-31T20:15:24.990Z,9.93
2019-03-31T20:20:47.359Z,9.65
2019-03-31T20:26:04.847Z,14.28
2019-03-31T20:31:26.405Z,13.05
2019-03-31T20:36:46.181Z,13.60
2019-03-31T20:41:57.596Z,14.90
2019-03-31T20:47:03.981Z,26.95
2019-03-31T20:52:10.156Z,17.55
2019-03-31T20:57:16.456Z,9.55
2019-03-31T21:02:22.804Z,4.70
2019-03-31T21:07:29.063Z,15.90
2019-03-31T21:12:35.448Z,7.67
2019-03-31T21:17:42.039Z,13.85
2019-03-31T21:22:48.731Z,12.90
2019-03-31T21:27:55.229Z,15.23
2019-03-31T21:33:01.558Z,19.92
2019-03-31T21:38:08.002Z,37.95
2019-03-31T21:43:14.332Z,59.70
2019-03-31T21:48:20.925Z,64.87
2019-03-31T21:53:27.154Z,56.20
2019-03-31T21:58:33.473Z,40.15
2019-03-31T22:03:40.182Z,54.03
2019-03-31T22:08:46.452Z,69.82
2019-03-31T22:13:52.700Z,11.93
2019-03-31T22:18:58.943Z,8.05
2019-03-31T22:24:05.278Z,9.88
2019-03-31T22:29:11.456Z,7.30
2019-03-31T22:34:17.874Z,7.35
2019-03-31T22:39:24.021Z,6.92
2019-03-31T22:44:30.100Z,11.08
2019-03-31T22:49:36.356Z,5.80
2019-03-31T22:54:42.676Z,9.28
2019-03-31T22:59:48.881Z,9.48
2019-03-31T23:04:55.133Z,12.28
2019-03-31T23:10:01.654Z,11.65
2019-03-31T23:15:08.315Z,16.40
2019-03-31T23:20:14.607Z,11.83
2019-03-31T23:25:20.988Z,8.03
2019-03-31T23:30:27.344Z,15.70
2019-03-31T23:35:33.619Z,14.38
2019-03-31T23:40:39.801Z,14.53
2019-03-31T23:45:46.358Z,18.67
2019-03-31T23:50:52.654Z,14.65
2019-03-31T23:56:18.897Z,13.85
